Time;durP1;ratioP1;P1;durP2;ratioP2;P2;SDS_P1;SDS_P2;PMS_P1;PMS_P2;Temp;Humidity;BMP_temperature;BMP_pressure;BME280_temperature;BME280_humidity;BME280_pressure;Samples;Min_cycle;Max_cycle;Signal;HPM_P1;HPM_P2
2021/09/20 00:01:49;;;;;;;3.73;3.43;;;12.00;99.90;;;;;;474980;250;28389;-71
2021/09/20 00:03:50;;;;;;;3.40;3.10;;;11.90;99.90;;;;;;474989;250;28242;-71
2021/09/20 00:05:51;;;;;;;3.40;3.13;;;12.00;99.90;;;;;;474948;250;28264;-71
2021/09/20 00:07:52;;;;;;;3.23;3.03;;;12.00;99.90;;;;;;474953;250;28254;-71
2021/09/20 00:09:54;;;;;;;3.60;3.30;;;12.00;99.90;;;;;;474946;250;28505;-71
2021/09/20 00:11:55;;;;;;;3.17;2.97;;;12.10;99.90;;;;;;474976;250;28485;-71
2021/09/20 00:13:56;;;;;;;3.50;3.20;;;12.10;99.90;;;;;;474988;250;28260;-71
2021/09/20 00:15:57;;;;;;;3.60;3.30;;;12.10;99.90;;;;;;474953;250;28785;-71
2021/09/20 00:17:59;;;;;;;3.53;3.23;;;12.10;99.90;;;;;;474975;250;28829;-70
2021/09/20 00:20:00;;;;;;;3.70;3.40;;;12.20;99.90;;;;;;474943;250;28440;-71
2021/09/20 00:22:01;;;;;;;3.73;3.43;;;12.10;99.90;;;;;;474972;250;28260;-71
2021/09/20 00:24:02;;;;;;;3.23;2.97;;;12.20;99.90;;;;;;474963;250;28289;-71
2021/09/20 00:26:04;;;;;;;3.27;2.97;;;12.20;99.90;;;;;;474931;250;28304;-71
2021/09/20 00:28:05;;;;;;;3.73;3.40;;;12.20;99.90;;;;;;474965;250;28271;-71
2021/09/20 00:30:06;;;;;;;3.30;3.00;;;12.10;99.90;;;;;;474969;250;28142;-71
2021/09/20 00:32:07;;;;;;;3.33;3.03;;;12.10;99.90;;;;;;474977;250;28217;-71
2021/09/20 00:34:09;;;;;;;3.20;3.00;;;12.20;99.90;;;;;;474951;250;28265;-71
2021/09/20 00:36:10;;;;;;;3.90;3.50;;;12.20;99.90;;;;;;474919;250;28390;-71
2021/09/20 00:38:11;;;;;;;3.47;3.23;;;12.20;99.90;;;;;;474909;250;28425;-71
2021/09/20 00:40:12;;;;;;;3.47;3.17;;;12.20;99.90;;;;;;474952;250;29145;-71
2021/09/20 00:42:14;;;;;;;2.70;2.50;;;12.20;99.90;;;;;;474957;250;28096;-71
2021/09/20 00:44:15;;;;;;;4.03;3.40;;;12.20;99.90;;;;;;474989;250;28391;-71
2021/09/20 00:46:16;;;;;;;3.73;3.43;;;12.20;99.90;;;;;;474947;250;28375;-71
2021/09/20 00:48:17;;;;;;;3.63;3.33;;;12.00;99.90;;;;;;474958;250;28384;-71
2021/09/20 00:50:19;;;;;;;3.27;3.03;;;12.00;99.90;;;;;;474963;250;28304;-71
2021/09/20 00:52:20;;;;;;;3.63;3.33;;;12.00;99.90;;;;;;474962;250;28341;-71
2021/09/20 00:54:21;;;;;;;4.13;3.50;;;12.00;99.90;;;;;;474967;250;28587;-71
2021/09/20 00:56:22;;;;;;;4.10;3.70;;;11.70;99.90;;;;;;474938;250;28770;-71
2021/09/20 00:58:24;;;;;;;3.27;3.07;;;11.60;99.90;;;;;;474974;250;28806;-71
2021/09/20 01:00:25;;;;;;;3.50;3.20;;;11.60;99.90;;;;;;474981;250;28244;-71
2021/09/20 01:02:26;;;;;;;3.60;3.30;;;11.60;99.90;;;;;;474956;250;28229;-71
2021/09/20 01:04:27;;;;;;;3.50;3.20;;;11.60;99.90;;;;;;474970;250;28104;-71
2021/09/20 01:06:29;;;;;;;3.83;3.53;;;11.60;99.90;;;;;;474980;250;28012;-71
2021/09/20 01:08:30;;;;;;;5.60;3.80;;;11.60;99.90;;;;;;474968;250;28445;-71
2021/09/20 01:10:32;;;;;;;4.03;3.73;;;11.70;99.90;;;;;;475017;250;28101;-71
2021/09/20 01:12:34;;;;;;;3.97;3.63;;;11.70;99.90;;;;;;474981;250;28247;-70
2021/09/20 01:14:35;;;;;;;3.93;3.53;;;11.80;99.90;;;;;;474959;250;28074;-71
2021/09/20 01:16:36;;;;;;;4.07;3.77;;;11.80;99.90;;;;;;474978;250;28653;-71
2021/09/20 01:18:37;;;;;;;5.30;3.20;;;11.90;99.90;;;;;;474977;250;28691;-70
2021/09/20 01:20:39;;;;;;;4.10;3.70;;;11.90;99.90;;;;;;474978;250;28679;-71
2021/09/20 01:22:40;;;;;;;3.83;3.53;;;12.00;99.90;;;;;;474901;250;28444;-71
2021/09/20 01:24:41;;;;;;;3.80;3.50;;;12.00;99.90;;;;;;474950;250;28274;-70
2021/09/20 01:26:42;;;;;;;4.30;3.90;;;12.00;99.90;;;;;;474971;250;28219;-71
2021/09/20 01:28:44;;;;;;;4.03;3.63;;;12.00;99.90;;;;;;475008;249;28246;-71
2021/09/20 01:30:45;;;;;;;4.33;3.93;;;12.10;99.90;;;;;;474996;250;28104;-71
2021/09/20 01:32:46;;;;;;;3.80;3.50;;;12.10;99.90;;;;;;474936;250;28007;-71
2021/09/20 01:34:47;;;;;;;4.13;3.80;;;12.10;99.90;;;;;;474953;250;28293;-71
2021/09/20 01:36:51;;;;;;;3.60;3.30;;;12.10;99.90;;;;;;474980;250;28227;-71
2021/09/20 01:38:50;;;;;;;4.00;3.70;;;12.10;99.90;;;;;;474960;246;28220;-72
2021/09/20 01:40:51;;;;;;;3.67;3.37;;;12.10;99.90;;;;;;474921;250;28722;-71
2021/09/20 01:42:53;;;;;;;4.03;3.73;;;12.10;99.90;;;;;;474918;250;28703;-71
2021/09/20 01:44:54;;;;;;;4.67;4.27;;;12.10;99.90;;;;;;474928;250;28645;-71
2021/09/20 01:46:56;;;;;;;4.33;3.93;;;12.10;99.90;;;;;;474942;250;28672;-71
2021/09/20 01:48:56;;;;;;;3.77;3.43;;;12.20;99.90;;;;;;474926;250;28260;-71
2021/09/20 01:50:58;;;;;;;4.97;3.83;;;12.10;99.90;;;;;;474951;250;28064;-71
2021/09/20 01:52:59;;;;;;;4.40;4.00;;;12.00;99.90;;;;;;474921;250;28266;-71
2021/09/20 01:55:00;;;;;;;4.10;3.80;;;12.00;99.90;;;;;;474898;247;28231;-71
2021/09/20 01:57:01;;;;;;;4.03;3.60;;;12.00;99.90;;;;;;474946;250;28291;-71
2021/09/20 01:59:03;;;;;;;3.90;3.50;;;12.10;99.90;;;;;;474962;250;28384;-71
2021/09/20 02:01:04;;;;;;;3.70;3.40;;;12.00;99.90;;;;;;474937;250;28104;-71
2021/09/20 02:03:05;;;;;;;4.27;3.87;;;12.10;99.90;;;;;;474933;250;28111;-71
2021/09/20 02:05:06;;;;;;;4.67;3.90;;;12.10;99.90;;;;;;474949;250;28184;-71
2021/09/20 02:07:08;;;;;;;4.00;3.70;;;12.00;99.90;;;;;;474942;250;28549;-71
2021/09/20 02:09:11;;;;;;;4.00;3.70;;;12.00;99.90;;;;;;474970;248;28889;-71
2021/09/20 02:11:10;;;;;;;3.70;3.40;;;11.90;99.90;;;;;;474941;250;28649;-71
2021/09/20 02:13:11;;;;;;;4.67;4.00;;;11.90;99.90;;;;;;474940;250;28126;-71
2021/09/20 02:15:13;;;;;;;4.67;4.27;;;11.90;99.90;;;;;;474965;250;28018;-71
2021/09/20 02:17:14;;;;;;;5.43;4.33;;;11.90;99.90;;;;;;474972;250;28114;-71
2021/09/20 02:19:15;;;;;;;4.20;3.80;;;12.00;99.90;;;;;;474938;250;28287;-71
2021/09/20 02:21:16;;;;;;;4.30;3.90;;;12.10;99.90;;;;;;474960;250;28107;-71
2021/09/20 02:23:18;;;;;;;4.30;3.67;;;12.10;99.90;;;;;;474966;250;28034;-71
2021/09/20 02:25:21;;;;;;;4.40;4.00;;;12.10;99.90;;;;;;474969;250;28141;-71
2021/09/20 02:27:22;;;;;;;4.17;3.80;;;12.10;99.90;;;;;;474920;250;28087;-71
2021/09/20 02:29:22;;;;;;;4.10;3.60;;;12.20;99.90;;;;;;474973;250;28718;-71
2021/09/20 02:31:23;;;;;;;4.60;3.50;;;12.20;99.90;;;;;;475010;250;28962;-71
2021/09/20 02:33:24;;;;;;;4.70;3.80;;;12.20;99.90;;;;;;474976;250;28588;-71
2021/09/20 02:35:26;;;;;;;3.47;3.27;;;12.20;99.90;;;;;;475026;250;28258;-71
2021/09/20 02:37:27;;;;;;;4.00;3.70;;;12.20;99.90;;;;;;474996;250;28514;-71
2021/09/20 02:39:28;;;;;;;4.10;3.50;;;12.20;99.90;;;;;;474974;250;28407;-71
2021/09/20 02:41:29;;;;;;;3.70;3.40;;;12.20;99.90;;;;;;475042;250;28410;-71
2021/09/20 02:43:31;;;;;;;7.10;3.87;;;12.20;99.90;;;;;;475010;250;28230;-70
2021/09/20 02:45:32;;;;;;;4.50;4.07;;;12.20;99.90;;;;;;475026;250;28485;-71
2021/09/20 02:47:33;;;;;;;4.00;3.60;;;12.20;99.90;;;;;;474952;250;28228;-71
2021/09/20 02:49:34;;;;;;;3.73;3.43;;;12.20;99.90;;;;;;474960;250;28271;-71
2021/09/20 02:51:36;;;;;;;3.97;3.20;;;12.10;99.90;;;;;;475005;250;28634;-71
2021/09/20 02:53:37;;;;;;;4.00;3.70;;;12.00;99.90;;;;;;474975;250;28862;-71
2021/09/20 02:55:38;;;;;;;3.93;3.63;;;12.00;99.90;;;;;;475000;250;28949;-71
2021/09/20 02:57:39;;;;;;;3.90;3.60;;;12.10;99.90;;;;;;474950;250;28890;-71
2021/09/20 02:59:41;;;;;;;4.07;3.50;;;12.10;99.90;;;;;;474966;250;28734;-71
2021/09/20 03:01:42;;;;;;;3.87;3.57;;;12.10;99.90;;;;;;475010;250;28378;-71
2021/09/20 03:03:43;;;;;;;4.10;3.70;;;12.20;99.90;;;;;;474997;250;28222;-71
2021/09/20 03:05:44;;;;;;;4.80;4.30;;;12.20;99.90;;;;;;474977;250;28235;-71
2021/09/20 03:07:46;;;;;;;4.03;3.63;;;12.10;99.90;;;;;;474947;250;28515;-71
2021/09/20 03:09:47;;;;;;;4.30;3.97;;;12.20;99.90;;;;;;474972;250;28141;-71
2021/09/20 03:11:48;;;;;;;3.60;3.30;;;12.30;99.90;;;;;;475007;250;28250;-71
2021/09/20 03:13:49;;;;;;;4.00;3.67;;;12.30;99.90;;;;;;474996;250;28101;-71
2021/09/20 03:15:51;;;;;;;4.00;3.60;;;12.30;99.90;;;;;;475004;250;28554;-72
2021/09/20 03:17:52;;;;;;;5.37;4.03;;;12.30;99.90;;;;;;474880;250;28994;-71
2021/09/20 03:19:53;;;;;;;3.90;3.60;;;12.30;99.90;;;;;;474921;250;28932;-71
2021/09/20 03:21:54;;;;;;;3.87;3.47;;;12.30;99.90;;;;;;474997;250;28944;-71
2021/09/20 03:23:56;;;;;;;3.97;3.57;;;12.30;99.90;;;;;;474984;250;28573;-71
2021/09/20 03:25:57;;;;;;;4.17;3.77;;;12.20;99.90;;;;;;474789;250;28211;-71
2021/09/20 03:27:58;;;;;;;3.70;3.40;;;12.20;99.90;;;;;;473764;250;28118;-70
2021/09/20 03:29:59;;;;;;;4.23;3.93;;;12.20;99.90;;;;;;473522;250;28783;-71
2021/09/20 03:32:01;;;;;;;4.00;3.70;;;12.20;99.90;;;;;;474274;250;29056;-71
2021/09/20 03:34:02;;;;;;;3.47;3.17;;;12.20;99.90;;;;;;474949;250;28704;-71
2021/09/20 03:36:04;;;;;;;3.77;3.47;;;12.10;99.90;;;;;;474972;250;28936;-71
2021/09/20 03:38:04;;;;;;;3.77;3.47;;;12.20;99.90;;;;;;474962;250;28767;-71
2021/09/20 03:40:06;;;;;;;4.23;3.93;;;12.20;99.90;;;;;;474955;250;28803;-71
2021/09/20 03:42:07;;;;;;;3.50;3.20;;;12.20;99.90;;;;;;474972;250;28421;-71
2021/09/20 03:44:08;;;;;;;4.50;4.10;;;12.20;99.90;;;;;;474977;250;28200;-71
2021/09/20 03:46:09;;;;;;;3.80;3.50;;;12.20;99.90;;;;;;474983;250;28265;-71
2021/09/20 03:48:11;;;;;;;6.30;4.10;;;12.10;99.90;;;;;;474932;250;28357;-71
2021/09/20 03:50:12;;;;;;;3.87;3.57;;;12.20;99.90;;;;;;474962;250;28420;-71
2021/09/20 03:52:13;;;;;;;4.10;3.80;;;12.10;99.90;;;;;;475001;250;28257;-71
2021/09/20 03:54:14;;;;;;;3.73;3.40;;;12.20;99.90;;;;;;474980;250;28454;-71
2021/09/20 03:56:16;;;;;;;3.90;3.60;;;12.20;99.90;;;;;;475009;250;28011;-71
2021/09/20 03:58:17;;;;;;;4.27;3.87;;;12.20;99.90;;;;;;474945;250;28851;-71
2021/09/20 04:00:18;;;;;;;4.07;3.67;;;12.20;99.90;;;;;;474938;250;28620;-71
2021/09/20 04:02:20;;;;;;;4.43;4.03;;;12.30;99.90;;;;;;475012;250;28968;-71
2021/09/20 04:04:21;;;;;;;4.47;4.07;;;12.30;99.90;;;;;;474987;250;28824;-71
2021/09/20 04:06:22;;;;;;;4.07;3.33;;;12.30;99.90;;;;;;475004;250;28331;-71
2021/09/20 04:08:29;;;;;;;3.43;3.13;;;12.30;99.90;;;;;;474931;247;28319;-71
2021/09/20 04:10:30;;;;;;;4.13;3.73;;;12.30;99.90;;;;;;474967;250;28920;-71
2021/09/20 04:12:31;;;;;;;4.00;3.70;;;12.30;99.90;;;;;;474939;250;28854;-71
2021/09/20 04:14:33;;;;;;;3.87;3.57;;;12.20;99.90;;;;;;474985;250;28928;-71
2021/09/20 04:16:34;;;;;;;4.43;4.03;;;12.20;99.90;;;;;;474990;250;28367;-71
2021/09/20 04:18:35;;;;;;;6.73;3.50;;;12.20;99.90;;;;;;474960;250;28304;-71
2021/09/20 04:20:36;;;;;;;4.10;3.60;;;12.30;99.90;;;;;;474976;250;28350;-71
2021/09/20 04:22:38;;;;;;;3.80;3.47;;;12.30;99.90;;;;;;474955;250;28217;-71
2021/09/20 04:24:39;;;;;;;4.50;4.10;;;12.30;99.90;;;;;;474967;250;28289;-71
2021/09/20 04:26:40;;;;;;;4.93;3.50;;;12.30;99.90;;;;;;475010;250;28142;-71
2021/09/20 04:28:41;;;;;;;4.73;4.20;;;12.30;99.90;;;;;;474971;250;28617;-71
2021/09/20 04:30:46;;;;;;;4.17;3.77;;;12.30;99.90;;;;;;474967;250;28609;-71
2021/09/20 04:32:47;;;;;;;3.57;3.17;;;12.30;99.90;;;;;;474967;250;28108;-71
2021/09/20 04:34:48;;;;;;;3.90;3.57;;;12.30;99.90;;;;;;474981;250;29442;-71
2021/09/20 04:36:49;;;;;;;4.30;3.83;;;12.30;99.90;;;;;;474997;250;28749;-70
2021/09/20 04:38:51;;;;;;;4.07;3.70;;;12.30;99.90;;;;;;474977;250;28286;-71
2021/09/20 04:40:52;;;;;;;4.57;4.17;;;12.40;99.90;;;;;;474958;246;28574;-71
2021/09/20 04:42:53;;;;;;;4.00;3.70;;;12.30;99.90;;;;;;474958;250;28260;-71
2021/09/20 04:44:54;;;;;;;4.00;3.63;;;12.40;99.90;;;;;;475000;250;28383;-71
2021/09/20 04:46:56;;;;;;;3.87;3.57;;;12.30;99.90;;;;;;475020;250;28359;-71
2021/09/20 04:48:57;;;;;;;4.10;3.70;;;12.30;99.90;;;;;;474977;247;28274;-71
2021/09/20 04:50:58;;;;;;;3.77;3.47;;;12.30;99.90;;;;;;474946;250;28208;-71
2021/09/20 04:52:59;;;;;;;4.00;3.60;;;12.30;99.90;;;;;;474958;250;28259;-71
2021/09/20 04:55:01;;;;;;;4.87;4.40;;;12.30;99.90;;;;;;474979;250;28386;-71
2021/09/20 04:57:02;;;;;;;4.40;3.80;;;12.30;99.90;;;;;;474973;250;28754;-71
2021/09/20 04:59:03;;;;;;;4.17;3.87;;;12.30;99.90;;;;;;474967;248;28868;-71
2021/09/20 05:01:04;;;;;;;4.83;4.40;;;12.30;99.90;;;;;;474680;250;29022;-71
2021/09/20 05:03:06;;;;;;;4.60;4.20;;;12.40;99.90;;;;;;474923;250;28813;-71
2021/09/20 05:05:07;;;;;;;3.60;3.30;;;12.40;99.90;;;;;;474980;245;28363;-71
2021/09/20 05:07:08;;;;;;;4.70;4.17;;;12.30;99.90;;;;;;474972;250;28223;-71
2021/09/20 05:09:10;;;;;;;5.03;4.03;;;12.30;99.90;;;;;;474878;250;28359;-71
2021/09/20 05:11:11;;;;;;;5.30;4.50;;;12.30;99.90;;;;;;474953;250;28229;-71
2021/09/20 05:13:12;;;;;;;5.03;4.10;;;12.30;99.90;;;;;;474944;250;28523;-71
2021/09/20 05:15:14;;;;;;;4.37;3.97;;;12.30;99.90;;;;;;474963;250;28356;-71
2021/09/20 05:17:14;;;;;;;4.27;3.87;;;12.20;99.90;;;;;;474957;249;28343;-70
2021/09/20 05:19:16;;;;;;;4.30;3.90;;;12.20;99.90;;;;;;474931;250;28589;-71
2021/09/20 05:21:17;;;;;;;5.10;4.30;;;12.20;99.90;;;;;;474958;250;28834;-71
2021/09/20 05:23:18;;;;;;;4.40;3.53;;;12.20;99.90;;;;;;474957;250;28768;-71
2021/09/20 05:25:20;;;;;;;4.83;4.00;;;12.20;99.90;;;;;;474985;250;28736;-71
2021/09/20 05:27:21;;;;;;;5.13;3.70;;;12.20;99.90;;;;;;474970;250;28743;-71
2021/09/20 05:29:22;;;;;;;5.10;3.87;;;12.20;99.90;;;;;;474937;250;28252;-71
2021/09/20 05:31:23;;;;;;;5.47;3.90;;;12.30;99.90;;;;;;474970;250;28111;-71
2021/09/20 05:33:24;;;;;;;10.67;3.90;;;12.30;99.90;;;;;;474967;250;28309;-71
2021/09/20 05:35:26;;;;;;;4.87;4.10;;;12.30;99.90;;;;;;474975;250;28336;-71
2021/09/20 05:37:27;;;;;;;7.27;4.30;;;12.30;99.90;;;;;;474973;250;28334;-71
2021/09/20 05:39:28;;;;;;;4.90;3.50;;;12.30;99.90;;;;;;474972;250;28273;-71
2021/09/20 05:41:29;;;;;;;4.27;3.87;;;12.40;99.90;;;;;;474920;250;28375;-71
2021/09/20 05:43:31;;;;;;;4.03;3.63;;;12.30;99.90;;;;;;474962;250;28228;-71
2021/09/20 05:45:32;;;;;;;4.73;4.30;;;12.40;99.90;;;;;;474968;250;28843;-71
2021/09/20 05:47:33;;;;;;;8.10;4.33;;;12.30;99.90;;;;;;474973;245;28677;-71
2021/09/20 05:49:34;;;;;;;6.67;4.13;;;12.30;99.90;;;;;;474975;250;28733;-71
2021/09/20 05:51:36;;;;;;;4.03;3.67;;;12.30;99.90;;;;;;475017;250;29549;-71
2021/09/20 05:53:37;;;;;;;5.50;3.80;;;12.30;99.90;;;;;;475033;250;28198;-71
2021/09/20 05:55:38;;;;;;;6.07;4.37;;;12.30;99.90;;;;;;474998;250;28349;-71
2021/09/20 05:57:39;;;;;;;5.97;4.10;;;12.30;99.90;;;;;;475000;250;28563;-71
2021/09/20 05:59:41;;;;;;;8.00;4.47;;;12.30;99.90;;;;;;474960;250;28111;-71
2021/09/20 06:01:42;;;;;;;6.23;5.10;;;12.40;99.90;;;;;;474960;250;28368;-71
2021/09/20 06:03:43;;;;;;;7.47;5.20;;;12.40;99.90;;;;;;474984;250;28450;-71
2021/09/20 06:05:44;;;;;;;7.30;4.87;;;12.40;99.90;;;;;;474969;250;28248;-71
2021/09/20 06:07:46;;;;;;;7.90;4.50;;;12.40;99.90;;;;;;475014;250;28438;-71
2021/09/20 06:09:47;;;;;;;6.37;5.13;;;12.40;99.90;;;;;;474944;250;28715;-71
2021/09/20 06:11:48;;;;;;;7.77;5.10;;;12.40;99.90;;;;;;475030;250;29068;-71
2021/09/20 06:13:49;;;;;;;5.93;4.17;;;12.50;99.90;;;;;;474995;250;28226;-71
2021/09/20 06:15:52;;;;;;;8.57;5.23;;;12.50;99.90;;;;;;474988;250;28321;-71
2021/09/20 06:17:52;;;;;;;8.60;5.90;;;12.50;99.90;;;;;;474961;250;28388;-71
2021/09/20 06:19:53;;;;;;;7.67;5.50;;;12.50;99.90;;;;;;474936;250;28380;-71
2021/09/20 06:21:54;;;;;;;7.80;5.93;;;12.50;99.90;;;;;;474985;250;28241;-71
2021/09/20 06:23:56;;;;;;;9.47;5.20;;;12.60;99.90;;;;;;474993;250;28358;-71
2021/09/20 06:25:57;;;;;;;9.30;5.50;;;12.70;99.90;;;;;;474984;246;29050;-71
2021/09/20 06:27:58;;;;;;;8.57;5.70;;;12.70;99.90;;;;;;474970;250;28858;-71
2021/09/20 06:29:59;;;;;;;7.60;6.17;;;12.70;99.90;;;;;;474957;250;28935;-71
2021/09/20 06:32:01;;;;;;;7.27;5.60;;;12.70;99.90;;;;;;475018;250;28236;-71
2021/09/20 06:34:02;;;;;;;8.93;6.60;;;12.70;99.90;;;;;;474989;250;28651;-71
2021/09/20 06:36:03;;;;;;;12.70;8.50;;;12.60;99.90;;;;;;474995;250;28360;-71
2021/09/20 06:38:04;;;;;;;19.50;9.37;;;12.40;99.90;;;;;;474978;249;28431;-71
2021/09/20 06:40:06;;;;;;;15.33;9.53;;;12.30;99.90;;;;;;475000;250;28475;-71
2021/09/20 06:42:07;;;;;;;16.57;10.10;;;12.40;99.90;;;;;;474971;250;28541;-71
2021/09/20 06:44:09;;;;;;;14.53;9.10;;;12.30;99.90;;;;;;474983;250;28648;-71
2021/09/20 06:46:09;;;;;;;14.93;9.17;;;12.40;99.90;;;;;;474931;250;29315;-71
2021/09/20 06:48:11;;;;;;;17.43;8.77;;;12.50;99.90;;;;;;474976;250;28541;-71
2021/09/20 06:50:12;;;;;;;11.17;7.10;;;12.50;99.90;;;;;;474969;250;28536;-71
2021/09/20 06:52:13;;;;;;;12.00;8.03;;;12.60;99.90;;;;;;474997;250;28359;-71
2021/09/20 06:54:15;;;;;;;12.40;7.70;;;12.70;99.90;;;;;;474987;250;28440;-71
2021/09/20 06:56:16;;;;;;;10.00;7.20;;;12.70;99.90;;;;;;474963;250;29428;-70
2021/09/20 06:58:17;;;;;;;11.97;8.33;;;12.80;99.90;;;;;;474988;250;29071;-71
2021/09/20 07:00:19;;;;;;;14.53;8.60;;;12.80;99.90;;;;;;474948;250;28944;-71
2021/09/20 07:02:20;;;;;;;12.07;8.10;;;12.70;99.90;;;;;;474965;250;28469;-70
2021/09/20 07:04:21;;;;;;;13.40;8.57;;;12.60;99.90;;;;;;474980;250;28264;-71
2021/09/20 07:06:22;;;;;;;11.90;8.47;;;12.60;99.90;;;;;;474985;250;28614;-70
2021/09/20 07:08:24;;;;;;;17.50;9.87;;;12.70;99.90;;;;;;474988;250;28475;-70
2021/09/20 07:10:25;;;;;;;12.47;8.20;;;12.70;99.90;;;;;;474934;250;28654;-70
2021/09/20 07:12:26;;;;;;;12.90;9.23;;;12.70;99.90;;;;;;474938;250;28794;-71
2021/09/20 07:14:27;;;;;;;12.67;8.00;;;12.80;99.90;;;;;;475002;250;28937;-71
2021/09/20 07:16:30;;;;;;;14.37;8.77;;;;;;;;;;474993;250;28438;-71
2021/09/20 07:18:31;;;;;;;14.23;8.90;;;12.70;99.90;;;;;;474989;250;27499;-71
2021/09/20 07:20:32;;;;;;;13.17;8.37;;;12.70;99.90;;;;;;474913;250;28941;-70
2021/09/20 07:22:34;;;;;;;12.90;8.47;;;12.80;99.90;;;;;;474996;250;28707;-70
2021/09/20 07:24:35;;;;;;;14.00;8.47;;;12.80;99.90;;;;;;474966;250;28880;-72
2021/09/20 07:26:36;;;;;;;14.00;8.73;;;12.70;99.90;;;;;;474981;250;29008;-72
2021/09/20 07:28:37;;;;;;;14.80;9.40;;;12.60;99.90;;;;;;474988;250;28557;-71
2021/09/20 07:30:41;;;;;;;11.40;7.87;;;12.60;99.90;;;;;;474936;250;28490;-71
2021/09/20 07:32:40;;;;;;;17.53;8.63;;;12.70;99.90;;;;;;475015;250;28617;-70
2021/09/20 07:34:41;;;;;;;10.70;7.57;;;12.70;99.90;;;;;;474975;250;28583;-69
2021/09/20 07:36:42;;;;;;;11.33;7.60;;;12.80;99.90;;;;;;474980;250;28500;-69
2021/09/20 07:38:44;;;;;;;13.10;8.77;;;12.80;99.90;;;;;;474965;250;29309;-70
2021/09/20 07:40:45;;;;;;;11.50;7.87;;;12.80;99.90;;;;;;474929;250;28765;-69
2021/09/20 07:42:46;;;;;;;11.80;7.83;;;12.90;99.90;;;;;;474995;250;28575;-70
2021/09/20 07:44:47;;;;;;;9.97;7.20;;;13.00;99.90;;;;;;474978;250;28749;-70
2021/09/20 07:46:49;;;;;;;11.63;8.10;;;13.00;99.90;;;;;;474982;250;28163;-71
2021/09/20 07:48:50;;;;;;;11.30;8.63;;;12.90;99.90;;;;;;474943;250;30286;-70
2021/09/20 07:50:52;;;;;;;13.77;8.63;;;12.80;99.90;;;;;;474993;250;28182;-70
2021/09/20 07:52:53;;;;;;;13.50;8.60;;;12.90;99.90;;;;;;474990;250;28452;-70
2021/09/20 07:54:54;;;;;;;10.20;7.70;;;12.90;99.90;;;;;;474969;250;28553;-70
2021/09/20 07:56:55;;;;;;;10.77;8.03;;;13.00;99.90;;;;;;474939;250;28379;-70
2021/09/20 07:58:56;;;;;;;12.60;8.10;;;13.00;99.90;;;;;;475003;250;28955;-72
2021/09/20 08:00:59;;;;;;;12.03;8.03;;;13.00;99.90;;;;;;474985;250;28233;-70
2021/09/20 08:02:59;;;;;;;14.63;9.30;;;12.90;99.90;;;;;;474975;250;29408;-70
2021/09/20 08:05:00;;;;;;;12.20;8.40;;;12.90;99.90;;;;;;474967;250;28776;-69
2021/09/20 08:07:01;;;;;;;9.67;8.13;;;12.90;99.90;;;;;;474972;250;29076;-69
2021/09/20 08:09:03;;;;;;;13.00;8.83;;;12.90;99.90;;;;;;474991;250;29045;-70
2021/09/20 08:11:04;;;;;;;15.47;8.73;;;12.90;99.90;;;;;;474964;250;28566;-70
2021/09/20 08:13:05;;;;;;;14.10;9.63;;;12.90;99.90;;;;;;474972;250;28390;-72
2021/09/20 08:15:06;;;;;;;12.67;8.03;;;13.00;99.90;;;;;;474954;250;28361;-71
2021/09/20 08:17:08;;;;;;;11.00;8.23;;;13.00;99.90;;;;;;474981;247;28405;-72
2021/09/20 08:19:09;;;;;;;11.47;8.70;;;13.20;99.90;;;;;;475000;250;28386;-72
2021/09/20 08:21:10;;;;;;;10.60;7.83;;;13.20;99.90;;;;;;474995;250;29479;-72
2021/09/20 08:23:11;;;;;;;14.40;7.87;;;13.10;99.90;;;;;;474975;250;28648;-72
2021/09/20 08:25:13;;;;;;;10.53;7.70;;;13.10;99.90;;;;;;474970;250;29405;-69
2021/09/20 08:27:15;;;;;;;11.80;7.73;;;13.20;99.90;;;;;;474958;250;28106;-72
2021/09/20 08:29:15;;;;;;;10.03;7.27;;;13.30;99.90;;;;;;474994;250;28362;-71
2021/09/20 08:31:16;;;;;;;10.63;8.07;;;13.30;99.90;;;;;;474959;250;28365;-71
2021/09/20 08:33:18;;;;;;;11.70;7.47;;;13.30;99.90;;;;;;474963;250;28389;-72
2021/09/20 08:35:20;;;;;;;11.40;7.90;;;;;;;;;;474935;250;28388;-72
2021/09/20 08:37:21;;;;;;;12.07;7.70;;;13.30;99.90;;;;;;474997;250;27450;-71
2021/09/20 08:39:23;;;;;;;9.77;7.10;;;13.20;99.90;;;;;;474951;250;28496;-72
2021/09/20 08:41:24;;;;;;;12.40;7.50;;;13.30;99.90;;;;;;474917;250;28392;-72
2021/09/20 08:43:25;;;;;;;10.60;7.57;;;13.30;99.90;;;;;;474950;250;28112;-72
2021/09/20 08:45:26;;;;;;;12.10;8.40;;;13.20;99.90;;;;;;474952;250;28363;-72
2021/09/20 08:47:28;;;;;;;12.30;8.00;;;13.20;99.90;;;;;;475017;250;28354;-71
2021/09/20 08:49:29;;;;;;;15.10;8.50;;;13.20;99.90;;;;;;474973;250;28880;-72
2021/09/20 08:51:30;;;;;;;18.23;9.13;;;13.20;99.90;;;;;;474949;250;28832;-72
2021/09/20 08:53:31;;;;;;;12.40;8.90;;;13.20;99.90;;;;;;474951;250;28818;-69
2021/09/20 08:55:33;;;;;;;21.10;9.33;;;13.10;99.90;;;;;;474945;250;28431;-69
2021/09/20 08:57:34;;;;;;;18.20;10.40;;;13.00;99.90;;;;;;474984;250;28201;-69
2021/09/20 08:59:35;;;;;;;17.73;10.23;;;12.90;99.90;;;;;;474962;250;28400;-69
2021/09/20 09:01:39;;;;;;;19.73;10.37;;;;;;;;;;474944;250;28887;-70
2021/09/20 09:03:39;;;;;;;16.50;9.53;;;12.90;99.90;;;;;;474966;250;26738;-69
2021/09/20 09:05:40;;;;;;;15.97;9.40;;;13.00;99.90;;;;;;474985;250;28508;-70
2021/09/20 09:07:41;;;;;;;15.30;9.73;;;13.00;99.90;;;;;;474990;250;28200;-70
2021/09/20 09:09:46;;;;;;;15.80;9.57;;;13.10;99.90;;;;;;474924;250;28285;-70
2021/09/20 09:11:44;;;;;;;13.90;9.03;;;13.30;99.90;;;;;;474982;248;28348;-69
2021/09/20 09:13:45;;;;;;;14.17;8.80;;;13.30;99.90;;;;;;474990;250;28287;-70
2021/09/20 09:15:46;;;;;;;12.30;8.70;;;13.40;99.90;;;;;;474955;250;28824;-70
2021/09/20 09:17:48;;;;;;;14.97;9.20;;;13.50;99.90;;;;;;474977;250;28822;-70
2021/09/20 09:19:49;;;;;;;16.10;10.00;;;13.40;99.90;;;;;;474967;250;28794;-70
2021/09/20 09:21:50;;;;;;;16.13;10.10;;;13.50;99.90;;;;;;474936;250;28278;-69
2021/09/20 09:23:51;;;;;;;15.37;9.40;;;13.70;99.90;;;;;;474953;250;28310;-71
2021/09/20 09:25:53;;;;;;;13.60;9.70;;;13.80;99.90;;;;;;474955;247;28612;-71
2021/09/20 09:27:54;;;;;;;16.83;10.93;;;13.80;99.90;;;;;;475013;250;28567;-71
2021/09/20 09:29:55;;;;;;;15.37;9.73;;;13.80;99.90;;;;;;474966;250;28487;-72
2021/09/20 09:31:56;;;;;;;13.73;9.10;;;13.90;99.90;;;;;;474952;250;30030;-71
2021/09/20 09:33:58;;;;;;;14.13;8.93;;;14.10;99.90;;;;;;474991;250;28920;-72
2021/09/20 09:35:59;;;;;;;14.47;8.73;;;14.20;99.90;;;;;;474980;250;29065;-70
2021/09/20 09:38:00;;;;;;;13.87;8.80;;;14.30;99.90;;;;;;474975;250;28536;-72
2021/09/20 09:40:01;;;;;;;12.00;7.63;;;14.30;99.90;;;;;;474948;250;28924;-69
2021/09/20 09:42:03;;;;;;;10.93;7.70;;;14.50;99.90;;;;;;474894;250;28986;-69
2021/09/20 09:44:04;;;;;;;10.00;7.77;;;14.70;99.90;;;;;;475025;250;28559;-71
2021/09/20 09:46:05;;;;;;;13.47;9.00;;;14.60;99.90;;;;;;475002;250;28896;-70
2021/09/20 09:48:06;;;;;;;11.67;7.67;;;14.40;99.90;;;;;;474945;246;28964;-72
2021/09/20 09:50:08;;;;;;;9.67;7.80;;;14.50;99.90;;;;;;474972;250;29395;-71
2021/09/20 09:52:12;;;;;;;14.00;8.57;;;14.60;99.90;;;;;;474878;250;30195;-72
2021/09/20 09:54:10;;;;;;;11.87;7.90;;;14.70;99.90;;;;;;475043;250;29326;-69
2021/09/20 09:56:11;;;;;;;11.77;8.13;;;14.60;99.90;;;;;;474999;250;28972;-71
2021/09/20 09:58:15;;;;;;;13.03;8.13;;;14.50;99.90;;;;;;474982;250;28918;-70
2021/09/20 10:00:14;;;;;;;9.43;6.70;;;14.50;99.90;;;;;;474952;250;28918;-70
2021/09/20 10:02:15;;;;;;;9.27;6.73;;;14.70;99.90;;;;;;474905;250;28896;-71
2021/09/20 10:04:22;;;;;;;9.83;7.30;;;14.90;99.90;;;;;;474989;250;28851;-71
2021/09/20 10:06:18;;;;;;;8.67;6.53;;;15.00;99.90;;;;;;474959;250;28928;-71
2021/09/20 10:08:19;;;;;;;12.27;8.00;;;15.00;99.90;;;;;;474964;250;28938;-71
2021/09/20 10:10:20;;;;;;;12.37;8.40;;;14.60;99.90;;;;;;474951;250;29403;-72
2021/09/20 10:12:22;;;;;;;16.07;9.07;;;14.40;99.90;;;;;;474927;250;29591;-70
2021/09/20 10:14:23;;;;;;;13.47;9.40;;;14.20;99.90;;;;;;474969;250;29495;-71
2021/09/20 10:16:24;;;;;;;14.10;9.90;;;14.20;99.90;;;;;;474942;250;28591;-70
2021/09/20 10:18:27;;;;;;;13.13;9.10;;;14.10;99.90;;;;;;474953;250;28562;-72
2021/09/20 10:20:27;;;;;;;12.77;9.63;;;14.10;99.90;;;;;;474973;250;28981;-70
2021/09/20 10:22:28;;;;;;;12.40;9.40;;;14.20;99.90;;;;;;474976;250;29045;-72
2021/09/20 10:24:29;;;;;;;12.70;9.43;;;14.10;99.90;;;;;;474985;250;28564;-69
2021/09/20 10:26:30;;;;;;;10.50;9.10;;;14.10;99.90;;;;;;474960;250;28672;-70
2021/09/20 10:28:32;;;;;;;13.90;8.97;;;14.20;99.90;;;;;;474978;250;29333;-69